createdAt,value
2018-07-22T00:00:04.821Z,20.00
2018-07-22T00:01:04.688Z,24.00
2018-07-22T00:02:04.694Z,20.00
2018-07-22T00:03:04.699Z,20.00
2018-07-22T00:04:04.730Z,24.00
2018-07-22T00:05:04.833Z,24.00
2018-07-22T00:06:04.754Z,20.00
2018-07-22T00:07:04.742Z,20.00
2018-07-22T00:08:04.775Z,24.00
2018-07-22T00:09:04.791Z,20.00
2018-07-22T00:10:04.938Z,24.00
2018-07-22T00:11:04.813Z,20.00
2018-07-22T00:12:04.835Z,24.00
2018-07-22T00:13:04.866Z,24.00
2018-07-22T00:14:04.866Z,24.00
2018-07-22T00:15:04.867Z,24.00
2018-07-22T00:16:04.977Z,20.00
2018-07-22T00:17:04.895Z,24.00
2018-07-22T00:18:04.906Z,20.00
2018-07-22T00:19:04.921Z,20.00
2018-07-22T00:20:04.940Z,20.00
2018-07-22T00:21:05.084Z,20.00
2018-07-22T00:22:04.967Z,24.00
2018-07-22T00:23:04.981Z,20.00
2018-07-22T00:24:04.988Z,20.00
2018-07-22T00:25:04.997Z,20.00
2018-07-22T00:26:05.159Z,20.00
2018-07-22T00:27:05.025Z,20.00
2018-07-22T00:28:05.033Z,20.00
2018-07-22T00:29:05.070Z,20.00
2018-07-22T00:30:05.051Z,20.00
2018-07-22T00:31:05.225Z,20.00
2018-07-22T00:32:05.085Z,20.00
2018-07-22T00:33:05.110Z,20.00
2018-07-22T00:34:05.118Z,20.00
2018-07-22T00:35:05.124Z,20.00
2018-07-22T00:36:05.290Z,20.00
2018-07-22T00:37:05.140Z,24.00
2018-07-22T00:38:05.171Z,24.00
2018-07-22T00:39:05.183Z,24.00
2018-07-22T00:40:05.197Z,20.00
2018-07-22T00:41:05.339Z,20.00
2018-07-22T00:42:05.221Z,20.00
2018-07-22T00:43:05.233Z,20.00
2018-07-22T00:44:05.227Z,20.00
2018-07-22T00:45:05.255Z,20.00
2018-07-22T00:46:05.526Z,20.00
2018-07-22T00:47:05.289Z,20.00
2018-07-22T00:48:05.304Z,20.00
2018-07-22T00:49:05.313Z,20.00
2018-07-22T00:50:05.331Z,20.00
2018-07-22T00:51:05.470Z,20.00
2018-07-22T00:52:05.355Z,20.00
2018-07-22T00:53:05.348Z,20.00
2018-07-22T00:54:05.382Z,20.00
2018-07-22T00:55:05.392Z,20.00
2018-07-22T00:56:05.530Z,20.00
2018-07-22T00:57:05.418Z,20.00
2018-07-22T00:58:05.430Z,20.00
2018-07-22T00:59:05.427Z,20.00
2018-07-22T01:00:05.637Z,20.00
2018-07-22T01:01:05.574Z,20.00
2018-07-22T01:02:05.483Z,20.00
2018-07-22T01:03:05.493Z,20.00
2018-07-22T01:04:05.502Z,20.00
2018-07-22T01:05:05.501Z,24.00
2018-07-22T01:06:05.661Z,20.00
2018-07-22T01:07:05.542Z,20.00
2018-07-22T01:08:05.570Z,20.00
2018-07-22T01:09:05.571Z,20.00
2018-07-22T01:10:05.582Z,20.00
2018-07-22T01:11:05.743Z,20.00
2018-07-22T01:12:05.609Z,20.00
2018-07-22T01:13:05.608Z,20.00
2018-07-22T01:14:05.631Z,20.00
2018-07-22T01:15:05.650Z,20.00
2018-07-22T01:16:05.811Z,24.00
2018-07-22T01:17:05.675Z,20.00
2018-07-22T01:18:05.685Z,20.00
2018-07-22T01:19:05.696Z,24.00
2018-07-22T01:20:05.717Z,20.00
2018-07-22T01:21:05.876Z,20.00
2018-07-22T01:22:05.742Z,24.00
2018-07-22T01:23:05.751Z,24.00
2018-07-22T01:24:05.763Z,20.00
2018-07-22T01:25:05.786Z,20.00
2018-07-22T01:26:05.791Z,20.00
2018-07-22T01:27:05.956Z,20.00
2018-07-22T01:28:05.815Z,20.00
2018-07-22T01:29:05.829Z,20.00
2018-07-22T01:30:05.847Z,20.00
2018-07-22T01:31:05.833Z,20.00
2018-07-22T01:32:05.873Z,20.00
2018-07-22T01:33:06.031Z,20.00
2018-07-22T01:34:05.901Z,20.00
2018-07-22T01:35:05.911Z,20.00
2018-07-22T01:36:05.926Z,20.00
2018-07-22T01:37:05.931Z,20.00
2018-07-22T01:38:06.195Z,20.00
2018-07-22T01:39:05.961Z,20.00
2018-07-22T01:40:05.976Z,20.00
2018-07-22T01:41:05.971Z,20.00
2018-07-22T01:42:06.003Z,20.00
2018-07-22T01:43:06.132Z,20.00
2018-07-22T01:44:06.030Z,20.00
2018-07-22T01:45:06.037Z,20.00
2018-07-22T01:46:06.053Z,20.00
2018-07-22T01:47:06.045Z,20.00
2018-07-22T01:48:06.307Z,20.00
2018-07-22T01:49:06.094Z,20.00
2018-07-22T01:50:06.098Z,20.00
2018-07-22T01:51:06.120Z,20.00
2018-07-22T01:52:06.124Z,20.00
2018-07-22T01:53:06.285Z,20.00
2018-07-22T01:54:06.152Z,20.00
2018-07-22T01:55:06.171Z,20.00
2018-07-22T01:56:06.186Z,20.00
2018-07-22T01:57:06.195Z,20.00
2018-07-22T01:58:06.356Z,20.00
2018-07-22T01:59:06.224Z,20.00
2018-07-22T02:00:06.230Z,20.00
2018-07-22T02:01:06.246Z,20.00
2018-07-22T02:02:06.260Z,20.00
2018-07-22T02:03:06.350Z,20.00
2018-07-22T02:04:06.294Z,20.00
2018-07-22T02:05:06.291Z,20.00
2018-07-22T02:06:06.311Z,20.00
2018-07-22T02:07:06.319Z,20.00
2018-07-22T02:08:06.586Z,20.00
2018-07-22T02:09:06.345Z,20.00
2018-07-22T02:10:06.405Z,20.00
2018-07-22T02:11:06.377Z,20.00
2018-07-22T02:12:06.369Z,20.00
2018-07-22T02:13:06.488Z,20.00
2018-07-22T02:14:06.421Z,20.00
2018-07-22T02:15:06.432Z,20.00
2018-07-22T02:16:06.422Z,20.00
2018-07-22T02:17:06.455Z,20.00
2018-07-22T02:18:06.620Z,20.00
2018-07-22T02:19:06.484Z,20.00
2018-07-22T02:20:06.474Z,20.00
2018-07-22T02:21:06.504Z,24.00
2018-07-22T02:22:06.526Z,20.00
2018-07-22T02:23:06.693Z,20.00
2018-07-22T02:24:06.548Z,20.00
2018-07-22T02:25:06.562Z,20.00
2018-07-22T02:26:06.567Z,20.00
2018-07-22T02:27:06.565Z,20.00
2018-07-22T02:28:06.746Z,20.00
2018-07-22T02:29:06.613Z,20.00
2018-07-22T02:30:06.626Z,20.00
2018-07-22T02:31:06.632Z,20.00
2018-07-22T02:32:06.656Z,20.00
2018-07-22T02:33:06.816Z,20.00
2018-07-22T02:34:06.678Z,20.00
2018-07-22T02:35:06.672Z,20.00
2018-07-22T02:36:06.700Z,20.00
2018-07-22T02:37:06.700Z,20.00
2018-07-22T02:38:06.875Z,20.00
2018-07-22T02:39:06.743Z,20.00
2018-07-22T02:40:06.735Z,20.00
2018-07-22T02:41:06.769Z,20.00
2018-07-22T02:42:06.786Z,16.00
2018-07-22T02:43:06.792Z,20.00
2018-07-22T02:44:06.888Z,20.00
2018-07-22T02:45:06.806Z,20.00
2018-07-22T02:46:06.835Z,20.00
2018-07-22T02:47:06.847Z,20.00
2018-07-22T02:48:06.860Z,20.00
2018-07-22T02:49:07.023Z,20.00
2018-07-22T02:50:06.875Z,20.00
2018-07-22T02:51:06.879Z,20.00
2018-07-22T02:52:06.913Z,20.00
2018-07-22T02:53:06.924Z,20.00
2018-07-22T02:54:07.087Z,20.00
2018-07-22T02:55:06.949Z,20.00
2018-07-22T02:56:06.959Z,20.00
2018-07-22T02:57:06.970Z,20.00
2018-07-22T02:58:06.986Z,20.00
2018-07-22T02:59:07.157Z,20.00
2018-07-22T03:00:06.994Z,20.00
2018-07-22T03:01:07.020Z,20.00
2018-07-22T03:02:07.036Z,20.00
2018-07-22T03:03:07.053Z,20.00
2018-07-22T03:04:07.214Z,20.00
2018-07-22T03:05:07.079Z,20.00
2018-07-22T03:06:07.093Z,20.00
2018-07-22T03:07:07.098Z,20.00
2018-07-22T03:08:07.116Z,20.00
2018-07-22T03:09:07.357Z,20.00
2018-07-22T03:10:07.136Z,20.00
2018-07-22T03:11:07.149Z,20.00
2018-07-22T03:12:07.163Z,20.00
2018-07-22T03:13:07.182Z,20.00
2018-07-22T03:14:07.442Z,20.00
2018-07-22T03:15:07.214Z,20.00
2018-07-22T03:16:07.223Z,20.00
2018-07-22T03:17:07.239Z,20.00
2018-07-22T03:18:07.243Z,20.00
2018-07-22T03:19:07.505Z,20.00
2018-07-22T03:20:07.254Z,20.00
2018-07-22T03:21:07.282Z,20.00
2018-07-22T03:22:07.279Z,16.00
2018-07-22T03:23:07.312Z,20.00
2018-07-22T03:24:07.573Z,20.00
2018-07-22T03:25:07.336Z,20.00
2018-07-22T03:26:07.350Z,20.00
2018-07-22T03:27:07.365Z,20.00
2018-07-22T03:28:07.383Z,20.00
2018-07-22T03:29:07.533Z,20.00
2018-07-22T03:30:07.402Z,20.00
2018-07-22T03:31:07.421Z,20.00
2018-07-22T03:32:07.411Z,20.00
2018-07-22T03:33:07.425Z,20.00
2018-07-22T03:34:07.602Z,20.00
2018-07-22T03:35:07.460Z,20.00
2018-07-22T03:36:07.465Z,20.00
2018-07-22T03:37:07.489Z,20.00
2018-07-22T03:38:07.511Z,20.00
2018-07-22T03:39:07.766Z,20.00
2018-07-22T03:40:07.567Z,20.00
2018-07-22T03:41:07.546Z,20.00
2018-07-22T03:42:07.555Z,20.00
2018-07-22T03:43:07.549Z,20.00
2018-07-22T03:44:07.731Z,20.00
2018-07-22T03:45:07.606Z,20.00
2018-07-22T03:46:07.607Z,20.00
2018-07-22T03:47:07.601Z,20.00
2018-07-22T03:48:07.635Z,20.00
2018-07-22T03:49:07.791Z,20.00
2018-07-22T03:50:07.642Z,20.00
2018-07-22T03:51:07.672Z,20.00
2018-07-22T03:52:07.685Z,20.00
2018-07-22T03:53:07.697Z,20.00
2018-07-22T03:54:07.862Z,20.00
2018-07-22T03:55:07.723Z,20.00
2018-07-22T03:56:07.718Z,20.00
2018-07-22T03:57:07.749Z,20.00
2018-07-22T03:58:07.771Z,20.00
2018-07-22T03:59:07.779Z,20.00
2018-07-22T04:00:07.891Z,20.00
2018-07-22T04:01:07.784Z,20.00
2018-07-22T04:02:07.790Z,20.00
2018-07-22T04:03:07.810Z,20.00
2018-07-22T04:04:07.840Z,20.00
2018-07-22T04:05:08.003Z,20.00
2018-07-22T04:06:07.863Z,20.00
2018-07-22T04:07:07.973Z,20.00
2018-07-22T04:08:07.895Z,20.00
2018-07-22T04:09:07.888Z,20.00
2018-07-22T04:10:08.067Z,20.00
2018-07-22T04:11:07.935Z,20.00
2018-07-22T04:12:07.920Z,20.00
2018-07-22T04:13:07.953Z,20.00
2018-07-22T04:14:07.967Z,20.00
2018-07-22T04:15:08.129Z,20.00
2018-07-22T04:16:07.978Z,20.00
2018-07-22T04:17:08.011Z,20.00
2018-07-22T04:18:08.015Z,20.00
2018-07-22T04:19:08.035Z,20.00
2018-07-22T04:20:08.195Z,20.00
2018-07-22T04:21:08.057Z,20.00
2018-07-22T04:22:08.071Z,20.00
2018-07-22T04:23:08.070Z,20.00
2018-07-22T04:24:08.098Z,20.00
2018-07-22T04:25:08.260Z,20.00
2018-07-22T04:26:08.124Z,20.00
2018-07-22T04:27:08.136Z,20.00
2018-07-22T04:28:08.148Z,20.00
2018-07-22T04:29:08.160Z,20.00
2018-07-22T04:30:08.326Z,20.00
2018-07-22T04:31:08.186Z,20.00
2018-07-22T04:32:08.204Z,20.00
2018-07-22T04:33:08.214Z,20.00
2018-07-22T04:34:08.216Z,20.00
2018-07-22T04:35:08.471Z,20.00
2018-07-22T04:36:08.246Z,20.00
2018-07-22T04:37:08.259Z,20.00
2018-07-22T04:38:08.277Z,20.00
2018-07-22T04:39:08.293Z,20.00
2018-07-22T04:40:08.555Z,20.00
2018-07-22T04:41:08.313Z,20.00
2018-07-22T04:42:08.327Z,20.00
2018-07-22T04:43:08.342Z,20.00
2018-07-22T04:44:08.354Z,20.00
2018-07-22T04:45:08.468Z,20.00
2018-07-22T04:46:08.375Z,20.00
2018-07-22T04:47:08.397Z,20.00
2018-07-22T04:48:08.387Z,20.00
2018-07-22T04:49:08.411Z,20.00
2018-07-22T04:50:08.574Z,20.00
2018-07-22T04:51:08.442Z,20.00
2018-07-22T04:52:08.441Z,20.00
2018-07-22T04:53:08.467Z,20.00
2018-07-22T04:54:08.464Z,20.00
2018-07-22T04:55:08.638Z,20.00
2018-07-22T04:56:08.514Z,20.00
2018-07-22T04:57:08.517Z,20.00
2018-07-22T04:58:08.531Z,20.00
2018-07-22T04:59:08.542Z,20.00
2018-07-22T05:00:08.710Z,20.00
2018-07-22T05:01:08.568Z,20.00
2018-07-22T05:02:08.586Z,20.00
2018-07-22T05:03:08.599Z,16.00
2018-07-22T05:04:08.611Z,20.00
2018-07-22T05:05:08.770Z,16.00
2018-07-22T05:06:08.634Z,20.00
2018-07-22T05:07:08.646Z,16.00
2018-07-22T05:08:08.662Z,20.00
2018-07-22T05:09:08.670Z,20.00
2018-07-22T05:10:08.831Z,16.00
2018-07-22T05:11:08.694Z,16.00
2018-07-22T05:12:08.711Z,16.00
2018-07-22T05:13:08.705Z,20.00
2018-07-22T05:14:08.731Z,16.00
2018-07-22T05:15:08.747Z,16.00
2018-07-22T05:16:08.911Z,16.00
2018-07-22T05:17:08.776Z,16.00
2018-07-22T05:18:08.771Z,16.00
2018-07-22T05:19:08.806Z,16.00
2018-07-22T05:20:08.816Z,16.00
2018-07-22T05:21:09.004Z,20.00
2018-07-22T05:22:08.845Z,16.00
2018-07-22T05:23:08.829Z,16.00
2018-07-22T05:24:08.868Z,20.00
2018-07-22T05:25:08.875Z,20.00
2018-07-22T05:26:09.039Z,20.00
2018-07-22T05:27:08.899Z,20.00
2018-07-22T05:28:08.912Z,20.00
2018-07-22T05:29:08.906Z,20.00
2018-07-22T05:30:08.943Z,20.00
2018-07-22T05:31:09.117Z,20.00
2018-07-22T05:32:08.962Z,20.00
2018-07-22T05:33:08.976Z,20.00
2018-07-22T05:34:08.986Z,20.00
2018-07-22T05:35:09.005Z,20.00
2018-07-22T05:36:09.215Z,20.00
2018-07-22T05:37:09.035Z,20.00
2018-07-22T05:38:09.046Z,20.00
2018-07-22T05:39:09.061Z,20.00
2018-07-22T05:40:09.061Z,20.00
2018-07-22T05:41:09.228Z,20.00
2018-07-22T05:42:09.108Z,20.00
2018-07-22T05:43:09.107Z,20.00
2018-07-22T05:44:09.117Z,20.00
2018-07-22T05:45:09.135Z,20.00
2018-07-22T05:46:09.392Z,20.00
2018-07-22T05:47:09.157Z,20.00
2018-07-22T05:48:09.209Z,20.00
2018-07-22T05:49:09.188Z,20.00
2018-07-22T05:50:09.178Z,20.00
2018-07-22T05:51:09.356Z,20.00
2018-07-22T05:52:09.220Z,20.00
2018-07-22T05:53:09.233Z,20.00
2018-07-22T05:54:09.246Z,20.00
2018-07-22T05:55:09.255Z,20.00
2018-07-22T05:56:09.405Z,20.00
2018-07-22T05:57:09.282Z,20.00
2018-07-22T05:58:09.298Z,20.00
2018-07-22T05:59:09.307Z,20.00
2018-07-22T06:00:09.329Z,20.00
2018-07-22T06:01:09.466Z,20.00
2018-07-22T06:02:09.345Z,20.00
2018-07-22T06:03:09.386Z,20.00
2018-07-22T06:04:09.374Z,20.00
2018-07-22T06:05:09.387Z,20.00
2018-07-22T06:06:09.645Z,20.00
2018-07-22T06:07:09.406Z,20.00
2018-07-22T06:08:09.427Z,20.00
2018-07-22T06:09:09.435Z,20.00
2018-07-22T06:10:09.450Z,20.00
2018-07-22T06:11:09.617Z,20.00
2018-07-22T06:12:09.509Z,20.00
2018-07-22T06:13:09.488Z,20.00
2018-07-22T06:14:09.496Z,20.00
2018-07-22T06:15:09.512Z,20.00
2018-07-22T06:16:09.674Z,20.00
2018-07-22T06:17:09.532Z,20.00
2018-07-22T06:18:09.552Z,20.00
2018-07-22T06:19:09.566Z,20.00
2018-07-22T06:20:09.557Z,20.00
2018-07-22T06:21:09.737Z,20.00
2018-07-22T06:22:09.601Z,20.00
2018-07-22T06:23:09.609Z,20.00
2018-07-22T06:24:09.629Z,20.00
2018-07-22T06:25:09.639Z,20.00
2018-07-22T06:26:09.784Z,20.00
2018-07-22T06:27:09.673Z,20.00
2018-07-22T06:28:09.683Z,20.00
2018-07-22T06:29:09.693Z,20.00
2018-07-22T06:30:09.703Z,20.00
2018-07-22T06:31:09.719Z,20.00
2018-07-22T06:32:09.886Z,20.00
2018-07-22T06:33:09.725Z,20.00
2018-07-22T06:34:09.757Z,20.00
2018-07-22T06:35:09.818Z,20.00
2018-07-22T06:36:09.779Z,20.00
2018-07-22T06:37:09.791Z,20.00
2018-07-22T06:38:09.959Z,20.00
2018-07-22T06:39:09.801Z,20.00
2018-07-22T06:40:09.814Z,20.00
2018-07-22T06:41:09.865Z,20.00
2018-07-22T06:42:09.858Z,20.00
2018-07-22T06:43:10.014Z,20.00
2018-07-22T06:44:09.865Z,20.00
2018-07-22T06:45:09.896Z,20.00
2018-07-22T06:46:09.936Z,20.00
2018-07-22T06:47:09.924Z,20.00
2018-07-22T06:48:10.187Z,20.00
2018-07-22T06:49:09.943Z,20.00
2018-07-22T06:50:09.955Z,20.00
2018-07-22T06:51:09.973Z,20.00
2018-07-22T06:52:09.984Z,20.00
2018-07-22T06:53:10.093Z,20.00
2018-07-22T06:54:10.008Z,20.00
2018-07-22T06:55:10.029Z,20.00
2018-07-22T06:56:10.033Z,20.00
2018-07-22T06:57:10.083Z,20.00
2018-07-22T06:58:10.159Z,16.00
2018-07-22T06:59:10.059Z,20.00
2018-07-22T07:00:10.063Z,20.00
2018-07-22T07:01:10.097Z,20.00
2018-07-22T07:02:10.109Z,20.00
2018-07-22T07:03:10.267Z,16.00
2018-07-22T07:04:10.134Z,20.00
2018-07-22T07:05:10.156Z,20.00
2018-07-22T07:06:10.144Z,20.00
2018-07-22T07:07:10.175Z,16.00
2018-07-22T07:08:10.286Z,20.00
2018-07-22T07:09:10.198Z,20.00
2018-07-22T07:10:10.206Z,20.00
2018-07-22T07:11:10.219Z,20.00
2018-07-22T07:12:10.234Z,20.00
2018-07-22T07:13:10.402Z,20.00
2018-07-22T07:14:10.260Z,20.00
2018-07-22T07:15:10.273Z,20.00
2018-07-22T07:16:10.284Z,16.00
2018-07-22T07:17:10.300Z,20.00
2018-07-22T07:18:10.563Z,20.00
2018-07-22T07:19:10.304Z,20.00
2018-07-22T07:20:10.332Z,16.00
2018-07-22T07:21:10.333Z,20.00
2018-07-22T07:22:10.364Z,20.00
2018-07-22T07:23:10.622Z,20.00
2018-07-22T07:24:10.386Z,20.00
2018-07-22T07:25:10.380Z,20.00
2018-07-22T07:26:10.414Z,20.00
2018-07-22T07:27:10.405Z,20.00
2018-07-22T07:28:10.567Z,20.00
2018-07-22T07:29:10.449Z,20.00
2018-07-22T07:30:10.459Z,20.00
2018-07-22T07:31:10.479Z,20.00
2018-07-22T07:32:10.487Z,20.00
2018-07-22T07:33:10.751Z,16.00
2018-07-22T07:34:10.508Z,20.00
2018-07-22T07:35:10.526Z,16.00
2018-07-22T07:36:10.513Z,20.00
2018-07-22T07:37:10.536Z,16.00
2018-07-22T07:38:10.563Z,20.00
2018-07-22T07:39:10.731Z,20.00
2018-07-22T07:40:10.589Z,20.00
2018-07-22T07:41:10.606Z,20.00
2018-07-22T07:42:10.641Z,20.00
2018-07-22T07:43:10.628Z,20.00
2018-07-22T07:44:10.794Z,20.00
2018-07-22T07:45:10.651Z,20.00
2018-07-22T07:46:10.657Z,20.00
2018-07-22T07:47:10.677Z,20.00
2018-07-22T07:48:10.691Z,20.00
2018-07-22T07:49:10.693Z,20.00
2018-07-22T07:50:10.846Z,20.00
2018-07-22T07:51:10.724Z,20.00
2018-07-22T07:52:10.733Z,20.00
2018-07-22T07:53:10.748Z,20.00
2018-07-22T07:54:10.744Z,20.00
2018-07-22T07:55:10.870Z,20.00
2018-07-22T07:56:10.769Z,20.00
2018-07-22T07:57:10.800Z,20.00
2018-07-22T07:58:10.810Z,20.00
2018-07-22T07:59:10.827Z,20.00
2018-07-22T08:00:10.935Z,20.00
2018-07-22T08:01:10.846Z,20.00
2018-07-22T08:02:10.863Z,20.00
2018-07-22T08:03:10.951Z,20.00
2018-07-22T08:04:10.962Z,20.00
2018-07-22T08:05:11.099Z,20.00
2018-07-22T08:06:10.967Z,20.00
2018-07-22T08:07:10.998Z,20.00
2018-07-22T08:08:11.003Z,16.00
2018-07-22T08:09:11.025Z,20.00
2018-07-22T08:10:11.278Z,20.00
2018-07-22T08:11:11.033Z,16.00
2018-07-22T08:12:10.967Z,20.00
2018-07-22T08:13:10.989Z,20.00
2018-07-22T08:14:11.015Z,24.00
2018-07-22T08:15:11.181Z,20.00
2018-07-22T08:16:11.037Z,20.00
2018-07-22T08:17:11.093Z,20.00
2018-07-22T08:18:11.062Z,20.00
2018-07-22T08:19:11.123Z,20.00
2018-07-22T08:20:11.230Z,20.00
2018-07-22T08:21:11.095Z,16.00
2018-07-22T08:22:11.192Z,20.00
2018-07-22T08:23:11.121Z,20.00
2018-07-22T08:24:11.131Z,20.00
2018-07-22T08:25:11.295Z,20.00
2018-07-22T08:26:11.240Z,20.00
2018-07-22T08:27:11.176Z,20.00
2018-07-22T08:28:11.183Z,20.00
2018-07-22T08:29:11.199Z,20.00
2018-07-22T08:30:11.456Z,20.00
2018-07-22T08:31:11.217Z,20.00
2018-07-22T08:32:11.215Z,20.00
2018-07-22T08:33:11.243Z,20.00
2018-07-22T08:34:11.261Z,20.00
2018-07-22T08:35:11.420Z,20.00
2018-07-22T08:36:11.281Z,20.00
2018-07-22T08:37:11.295Z,20.00
2018-07-22T08:38:11.308Z,20.00
2018-07-22T08:39:11.325Z,20.00
2018-07-22T08:40:11.487Z,20.00
2018-07-22T08:41:11.371Z,20.00
2018-07-22T08:42:11.357Z,20.00
2018-07-22T08:43:11.369Z,20.00
2018-07-22T08:44:11.377Z,20.00
2018-07-22T08:45:11.551Z,20.00
2018-07-22T08:46:11.405Z,20.00
2018-07-22T08:47:11.413Z,20.00
2018-07-22T08:48:11.436Z,20.00
2018-07-22T08:49:11.422Z,20.00
2018-07-22T08:50:11.539Z,20.00
2018-07-22T08:51:11.495Z,20.00
2018-07-22T08:52:11.485Z,20.00
2018-07-22T08:53:11.512Z,20.00
2018-07-22T08:54:11.506Z,20.00
2018-07-22T08:55:11.613Z,20.00
2018-07-22T08:56:11.537Z,20.00
2018-07-22T08:57:11.545Z,20.00
2018-07-22T08:58:11.555Z,20.00
2018-07-22T08:59:11.543Z,20.00
2018-07-22T09:00:11.716Z,20.00
2018-07-22T09:01:11.600Z,20.00
2018-07-22T09:02:11.604Z,20.00
2018-07-22T09:03:11.619Z,20.00
2018-07-22T09:04:11.634Z,20.00
2018-07-22T09:05:11.740Z,20.00
2018-07-22T09:06:11.637Z,20.00
2018-07-22T09:07:11.650Z,20.00
2018-07-22T09:08:11.736Z,20.00
2018-07-22T09:09:11.687Z,20.00
2018-07-22T09:10:11.703Z,20.00
2018-07-22T09:11:11.821Z,20.00
2018-07-22T09:12:11.736Z,20.00
2018-07-22T09:13:11.737Z,20.00
2018-07-22T09:14:11.756Z,20.00
2018-07-22T09:15:11.766Z,20.00
2018-07-22T09:16:11.927Z,20.00
2018-07-22T09:17:11.790Z,20.00
2018-07-22T09:18:11.804Z,20.00
2018-07-22T09:19:11.812Z,20.00
2018-07-22T09:20:11.848Z,20.00
2018-07-22T09:21:11.936Z,20.00
2018-07-22T09:22:11.855Z,20.00
2018-07-22T09:23:11.862Z,20.00
2018-07-22T09:24:11.880Z,20.00
2018-07-22T09:25:11.891Z,24.00
2018-07-22T09:26:12.051Z,20.00
2018-07-22T09:27:11.912Z,20.00
2018-07-22T09:28:11.908Z,20.00
2018-07-22T09:29:11.940Z,24.00
2018-07-22T09:30:11.955Z,24.00
2018-07-22T09:31:12.125Z,24.00
2018-07-22T09:32:11.980Z,24.00
2018-07-22T09:33:11.995Z,24.00
2018-07-22T09:34:12.000Z,24.00
2018-07-22T09:35:12.011Z,28.00
2018-07-22T09:36:12.275Z,36.00
2018-07-22T09:37:12.037Z,36.00
2018-07-22T09:38:12.052Z,36.00
2018-07-22T09:39:12.061Z,36.00
2018-07-22T09:40:12.073Z,44.00
2018-07-22T09:41:12.168Z,48.00
2018-07-22T09:42:12.093Z,52.00
2018-07-22T09:43:12.114Z,52.00
2018-07-22T09:44:12.104Z,60.00
2018-07-22T09:45:12.137Z,72.00
2018-07-22T09:46:12.250Z,88.00
2018-07-22T09:47:12.159Z,92.00
2018-07-22T09:48:12.213Z,120.00
2018-07-22T09:49:12.185Z,128.00
2018-07-22T09:50:12.200Z,140.00
2018-07-22T09:51:12.356Z,128.00
2018-07-22T09:52:12.224Z,144.00
2018-07-22T09:53:12.227Z,156.00
2018-07-22T09:54:12.225Z,164.00
2018-07-22T09:55:12.257Z,184.00
2018-07-22T09:56:12.424Z,188.00
2018-07-22T09:57:12.280Z,192.00
2018-07-22T09:58:12.292Z,220.00
2018-07-22T09:59:12.345Z,220.00
2018-07-22T10:00:12.320Z,228.00
2018-07-22T10:01:12.479Z,248.00
2018-07-22T10:02:12.347Z,260.00
2018-07-22T10:03:12.368Z,260.00
2018-07-22T10:04:12.367Z,264.00
2018-07-22T10:05:12.386Z,268.00
2018-07-22T10:06:12.471Z,296.00
2018-07-22T10:07:12.382Z,360.00
2018-07-22T10:08:12.416Z,372.00
2018-07-22T10:09:12.432Z,392.00
2018-07-22T10:10:12.443Z,396.00
2018-07-22T10:11:12.595Z,464.00
2018-07-22T10:12:12.444Z,512.00
2018-07-22T10:13:12.478Z,484.00
2018-07-22T10:14:12.487Z,484.00
2018-07-22T10:15:12.503Z,512.00
2018-07-22T10:16:12.666Z,604.00
2018-07-22T10:17:12.525Z,840.00
2018-07-22T10:18:12.541Z,700.00
2018-07-22T10:19:12.553Z,688.00
2018-07-22T10:20:12.565Z,880.00
2018-07-22T10:21:12.725Z,944.00
2018-07-22T10:22:12.568Z,948.00
2018-07-22T10:23:12.600Z,848.00
2018-07-22T10:24:12.614Z,864.00
2018-07-22T10:25:12.626Z,1076.00
2018-07-22T10:26:12.623Z,1244.00
2018-07-22T10:27:12.797Z,976.00
2018-07-22T10:28:12.642Z,876.00
2018-07-22T10:29:12.654Z,960.00
2018-07-22T10:30:12.666Z,1232.00
2018-07-22T10:31:12.695Z,1280.00
2018-07-22T10:32:12.689Z,1036.00
2018-07-22T10:33:12.827Z,952.00
2018-07-22T10:34:12.734Z,952.00
2018-07-22T10:35:12.751Z,976.00
2018-07-22T10:36:12.759Z,928.00
2018-07-22T10:37:12.774Z,908.00
2018-07-22T10:38:12.932Z,952.00
2018-07-22T10:39:12.796Z,1072.00
2018-07-22T10:40:12.812Z,1172.00
2018-07-22T10:41:12.821Z,1072.00
2018-07-22T10:42:12.834Z,996.00
2018-07-22T10:43:12.997Z,1008.00
2018-07-22T10:44:12.855Z,1088.00
2018-07-22T10:45:12.878Z,1208.00
2018-07-22T10:46:12.879Z,1040.00
2018-07-22T10:47:12.897Z,1080.00
2018-07-22T10:48:13.060Z,1120.00
2018-07-22T10:49:12.911Z,1360.00
2018-07-22T10:50:12.916Z,1324.00
2018-07-22T10:51:12.942Z,1212.00
2018-07-22T10:52:12.940Z,1336.00
2018-07-22T10:53:13.129Z,1888.00
2018-07-22T10:54:12.985Z,1624.00
2018-07-22T10:55:13.006Z,1428.00
2018-07-22T10:56:13.008Z,1576.00
2018-07-22T10:57:13.027Z,1996.00
2018-07-22T10:58:13.185Z,2260.00
2018-07-22T10:59:13.049Z,2032.00
2018-07-22T11:00:13.065Z,1852.00
2018-07-22T11:01:13.073Z,2064.00
2018-07-22T11:02:13.090Z,2056.00
2018-07-22T11:03:13.213Z,1956.00
2018-07-22T11:04:13.093Z,1948.00
2018-07-22T11:05:13.099Z,1976.00
2018-07-22T11:06:13.139Z,1884.00
2018-07-22T11:07:13.145Z,1940.00
2018-07-22T11:08:13.413Z,1988.00
2018-07-22T11:09:13.177Z,1824.00
2018-07-22T11:10:13.185Z,1824.00
2018-07-22T11:11:13.199Z,2248.00
2018-07-22T11:12:13.218Z,2232.00
2018-07-22T11:13:13.375Z,2152.00
2018-07-22T11:14:13.257Z,2456.00
2018-07-22T11:15:13.250Z,2492.00
2018-07-22T11:16:13.267Z,2896.00
2018-07-22T11:17:13.272Z,2992.00
2018-07-22T11:18:13.393Z,2452.00
2018-07-22T11:19:13.301Z,2616.00
2018-07-22T11:20:13.312Z,2564.00
2018-07-22T11:21:13.407Z,2616.00
2018-07-22T11:22:13.340Z,2704.00
2018-07-22T11:23:13.459Z,3036.00
2018-07-22T11:24:13.364Z,3592.00
2018-07-22T11:25:13.384Z,3308.00
2018-07-22T11:26:13.391Z,3104.00
2018-07-22T11:27:13.402Z,3112.00
2018-07-22T11:28:13.570Z,3392.00
2018-07-22T11:29:13.435Z,3448.00
2018-07-22T11:30:13.441Z,3416.00
2018-07-22T11:31:13.455Z,3376.00
2018-07-22T11:32:13.470Z,3776.00
2018-07-22T11:33:13.585Z,3592.00
2018-07-22T11:34:13.502Z,3080.00
2018-07-22T11:35:13.512Z,3664.00
2018-07-22T11:36:13.525Z,3528.00
2018-07-22T11:37:13.515Z,3548.00
2018-07-22T11:38:13.710Z,3968.00
2018-07-22T11:39:13.566Z,4480.00
2018-07-22T11:40:13.558Z,4076.00
2018-07-22T11:41:13.598Z,4164.00
2018-07-22T11:42:13.607Z,4836.00
2018-07-22T11:43:13.621Z,4660.00
2018-07-22T11:44:13.733Z,4388.00
2018-07-22T11:45:13.627Z,3840.00
2018-07-22T11:46:13.664Z,3792.00
2018-07-22T11:47:13.670Z,4308.00
2018-07-22T11:48:13.690Z,4092.00
2018-07-22T11:49:13.699Z,3436.00
2018-07-22T11:50:13.915Z,3340.00
2018-07-22T11:51:13.727Z,3340.00
2018-07-22T11:52:13.740Z,3552.00
2018-07-22T11:53:13.733Z,3260.00
2018-07-22T11:54:13.772Z,2996.00
2018-07-22T11:55:14.036Z,3136.00
2018-07-22T11:56:13.804Z,3168.00
2018-07-22T11:57:13.809Z,2964.00
2018-07-22T11:58:13.827Z,2664.00
2018-07-22T11:59:13.827Z,2184.00
2018-07-22T12:00:14.090Z,2368.00
2018-07-22T12:01:13.854Z,2564.00
2018-07-22T12:02:13.882Z,2444.00
2018-07-22T12:03:13.900Z,2904.00
2018-07-22T12:04:13.911Z,2812.00
2018-07-22T12:05:14.074Z,2604.00
2018-07-22T12:06:13.932Z,2648.00
2018-07-22T12:07:13.950Z,2864.00
2018-07-22T12:08:13.959Z,2724.00
2018-07-22T12:09:13.973Z,2816.00
2018-07-22T12:10:14.240Z,2848.00
2018-07-22T12:11:14.004Z,3024.00
2018-07-22T12:12:14.056Z,3240.00
2018-07-22T12:13:14.017Z,3256.00
2018-07-22T12:14:14.026Z,3320.00
2018-07-22T12:15:14.205Z,3644.00
2018-07-22T12:16:14.052Z,4068.00
2018-07-22T12:17:14.080Z,4572.00
2018-07-22T12:18:14.093Z,4900.00
2018-07-22T12:19:14.093Z,5024.00
2018-07-22T12:20:14.276Z,4780.00
2018-07-22T12:21:14.170Z,4460.00
2018-07-22T12:22:14.357Z,4176.00
2018-07-22T12:23:14.165Z,3904.00
2018-07-22T12:24:14.178Z,3740.00
2018-07-22T12:25:14.274Z,3472.00
2018-07-22T12:26:14.210Z,3576.00
2018-07-22T12:27:14.219Z,4028.00
2018-07-22T12:28:14.237Z,4552.00
2018-07-22T12:29:14.305Z,4728.00
2018-07-22T12:30:14.363Z,4844.00
2018-07-22T12:31:14.260Z,4752.00
2018-07-22T12:32:14.296Z,5216.00
2018-07-22T12:33:14.300Z,6280.00
2018-07-22T12:34:14.323Z,6228.00
2018-07-22T12:35:14.486Z,8388.00
2018-07-22T12:36:14.344Z,7520.00
2018-07-22T12:37:14.361Z,6952.00
2018-07-22T12:38:14.377Z,7548.00
2018-07-22T12:39:14.389Z,8408.00
2018-07-22T12:40:14.556Z,8956.00
2018-07-22T12:41:14.420Z,8988.00
2018-07-22T12:42:14.442Z,8748.00